createdAt,value
2022-12-11T00:02:08.983Z,54.97
2022-12-11T00:04:35.673Z,53.63
2022-12-11T00:07:02.039Z,53.03
2022-12-11T00:09:29.575Z,53.15
2022-12-11T00:11:56.196Z,56.42
2022-12-11T00:14:22.569Z,54.97
2022-12-11T00:16:49.001Z,51.72
2022-12-11T00:19:15.939Z,57.22
2022-12-11T00:21:42.327Z,56.70
2022-12-11T00:24:08.760Z,55.13
2022-12-11T00:26:35.115Z,51.83
2022-12-11T00:29:01.619Z,56.85
2022-12-11T00:31:28.085Z,56.78
2022-12-11T00:33:54.564Z,57.53
2022-12-11T00:36:24.769Z,57.20
2022-12-11T00:38:52.565Z,63.00
2022-12-11T00:41:19.326Z,56.65
2022-12-11T00:43:46.315Z,54.67
2022-12-11T00:46:13.022Z,60.47
2022-12-11T00:48:39.774Z,58.97
2022-12-11T00:51:06.873Z,59.53
2022-12-11T00:53:33.381Z,57.25
2022-12-11T00:55:59.760Z,58.00
2022-12-11T00:58:26.127Z,60.10
2022-12-11T01:00:53.831Z,59.20
2022-12-11T01:03:20.232Z,61.67
2022-12-11T01:05:54.135Z,58.85
2022-12-11T01:08:20.732Z,62.83
2022-12-11T01:10:47.580Z,56.72
2022-12-11T01:13:14.144Z,57.88
2022-12-11T01:15:43.385Z,59.42
2022-12-11T01:18:11.494Z,57.20
2022-12-11T01:20:39.466Z,57.53
2022-12-11T01:23:06.261Z,60.10
2022-12-11T01:25:32.864Z,59.33
2022-12-11T01:27:59.602Z,62.83
2022-12-11T01:30:26.492Z,67.85
2022-12-11T01:32:52.981Z,63.20
2022-12-11T01:35:19.773Z,73.72
2022-12-11T01:37:47.704Z,82.40
2022-12-11T01:40:16.970Z,80.88
2022-12-11T01:42:43.457Z,81.45
2022-12-11T01:45:22.510Z,73.28
2022-12-11T01:47:54.036Z,77.72
2022-12-11T01:50:20.648Z,77.38
2022-12-11T01:52:48.922Z,80.57
2022-12-11T01:55:15.913Z,89.13
2022-12-11T01:57:45.116Z,86.88
2022-12-11T02:00:11.970Z,86.38
2022-12-11T02:02:38.411Z,86.38
2022-12-11T02:05:06.672Z,89.80
2022-12-11T02:07:39.999Z,91.40
2022-12-11T02:10:07.326Z,86.22
2022-12-11T02:12:45.905Z,83.13
2022-12-11T02:15:21.571Z,88.55
2022-12-11T02:18:13.888Z,87.05
2022-12-11T02:20:52.011Z,83.70
2022-12-11T02:23:43.920Z,87.65
2022-12-11T02:26:22.208Z,86.57
2022-12-11T02:28:58.869Z,87.85
2022-12-11T02:31:51.402Z,85.10
2022-12-11T02:34:32.789Z,85.13
2022-12-11T02:37:03.973Z,85.10
2022-12-11T02:39:33.504Z,90.28
2022-12-11T02:42:00.769Z,86.55
2022-12-11T02:44:30.660Z,94.65
2022-12-11T02:46:58.303Z,85.53
2022-12-11T02:49:26.285Z,86.50
2022-12-11T02:51:56.530Z,92.53
2022-12-11T02:54:30.049Z,95.88
2022-12-11T02:57:08.902Z,104.88
2022-12-11T02:59:39.139Z,107.05
2022-12-11T03:02:05.857Z,114.82
2022-12-11T03:04:34.961Z,118.97
2022-12-11T03:07:04.952Z,116.68
2022-12-11T03:09:31.940Z,104.25
2022-12-11T03:11:58.348Z,120.82
2022-12-11T03:14:24.737Z,105.05
2022-12-11T03:17:03.730Z,112.13
2022-12-11T03:19:36.552Z,118.60
2022-12-11T03:22:07.296Z,117.95
2022-12-11T03:25:00.633Z,124.43
2022-12-11T03:27:36.659Z,120.90
2022-12-11T03:30:11.605Z,128.27
2022-12-11T03:32:48.924Z,125.20
2022-12-11T03:35:24.597Z,135.20
2022-12-11T03:37:52.985Z,132.43
2022-12-11T03:40:21.735Z,131.43
2022-12-11T03:42:52.331Z,130.45
2022-12-11T03:45:21.859Z,134.93
2022-12-11T03:47:50.332Z,138.52
2022-12-11T03:50:18.504Z,136.38
2022-12-11T03:52:46.981Z,135.02
2022-12-11T03:55:16.530Z,142.25
2022-12-11T03:57:43.380Z,153.95
2022-12-11T04:00:13.714Z,160.40
2022-12-11T04:02:41.344Z,158.40
2022-12-11T04:05:09.175Z,156.35
2022-12-11T04:07:36.424Z,170.32
2022-12-11T04:10:04.721Z,158.88
2022-12-11T04:15:59.037Z,158.80
2022-12-11T04:18:25.422Z,162.50
2022-12-11T04:20:55.573Z,156.10
2022-12-11T04:23:21.943Z,157.75
2022-12-11T04:25:48.328Z,157.90
2022-12-11T04:28:14.721Z,148.27
2022-12-11T04:30:41.137Z,153.57
2022-12-11T04:33:07.552Z,146.40
2022-12-11T04:35:34.016Z,151.32
2022-12-11T04:38:00.371Z,155.95
2022-12-11T04:40:26.844Z,162.02
2022-12-11T04:46:25.193Z,148.70
2022-12-11T04:48:57.350Z,160.73
2022-12-11T04:51:24.756Z,163.02
2022-12-11T04:53:51.148Z,156.10
2022-12-11T04:56:17.611Z,154.05
2022-12-11T04:58:44.994Z,159.50
2022-12-11T05:01:14.201Z,157.00
2022-12-11T05:03:41.684Z,152.57
2022-12-11T05:06:09.854Z,166.35
2022-12-11T05:08:38.688Z,173.20
2022-12-11T05:11:07.840Z,157.80
2022-12-11T05:13:34.239Z,162.77
2022-12-11T05:16:03.140Z,157.40
2022-12-11T05:18:29.578Z,154.07
2022-12-11T05:21:01.231Z,175.88
2022-12-11T05:23:28.251Z,157.13
2022-12-11T05:25:56.373Z,171.35
2022-12-11T05:28:23.463Z,161.50
2022-12-11T05:30:58.153Z,161.35
2022-12-11T05:33:25.659Z,158.80
2022-12-11T05:35:52.386Z,177.85
2022-12-11T05:38:19.075Z,153.75
2022-12-11T05:40:45.549Z,173.60
2022-12-11T05:43:11.885Z,159.98
2022-12-11T05:45:38.239Z,161.40
2022-12-11T05:48:04.726Z,145.38
2022-12-11T05:50:31.085Z,163.70
2022-12-11T05:52:57.396Z,156.80
2022-12-11T05:55:23.763Z,156.57
2022-12-11T05:57:50.109Z,161.85
2022-12-11T06:00:16.560Z,154.10
2022-12-11T06:02:43.031Z,165.15
2022-12-11T06:05:09.808Z,164.35
2022-12-11T06:07:36.234Z,160.00
2022-12-11T06:10:02.623Z,167.90
2022-12-11T06:12:28.954Z,163.13
2022-12-11T06:14:55.330Z,145.68
2022-12-11T06:17:21.643Z,147.55
2022-12-11T06:19:49.120Z,157.13
2022-12-11T06:22:15.466Z,148.55
2022-12-11T06:24:41.822Z,155.20
2022-12-11T06:27:08.142Z,155.20
2022-12-11T06:29:34.523Z,154.05
2022-12-11T06:32:00.950Z,157.63
2022-12-11T06:34:27.482Z,148.40
2022-12-11T06:36:53.801Z,160.85
2022-12-11T06:39:20.160Z,143.27
2022-12-11T06:41:46.542Z,136.48
2022-12-11T06:44:12.882Z,140.25
2022-12-11T06:46:39.215Z,146.32
2022-12-11T06:49:05.570Z,176.32
2022-12-11T06:51:31.907Z,159.15
2022-12-11T06:53:58.267Z,150.07
2022-12-11T06:56:25.257Z,142.68
2022-12-11T06:58:52.583Z,136.77
2022-12-11T07:01:25.058Z,166.07
2022-12-11T07:03:55.993Z,147.38
2022-12-11T07:06:23.304Z,140.60
2022-12-11T07:08:49.812Z,141.80
2022-12-11T07:11:17.381Z,132.85
2022-12-11T07:13:44.133Z,136.68
2022-12-11T07:16:12.872Z,139.95
2022-12-11T07:18:41.187Z,129.02
2022-12-11T07:21:09.596Z,127.25
2022-12-11T07:23:36.071Z,124.60
2022-12-11T07:26:08.402Z,120.55
2022-12-11T07:28:35.567Z,114.93
2022-12-11T07:31:09.965Z,118.32
2022-12-11T07:33:36.876Z,121.18
2022-12-11T07:36:05.397Z,107.53
2022-12-11T07:38:32.456Z,105.00
2022-12-11T07:41:03.338Z,106.18
2022-12-11T07:43:29.706Z,96.15
2022-12-11T07:46:01.154Z,101.85
2022-12-11T07:48:27.502Z,98.95
2022-12-11T07:50:53.851Z,94.93
2022-12-11T07:53:20.199Z,98.32
2022-12-11T07:55:46.656Z,96.20
2022-12-11T07:58:13.017Z,89.22
2022-12-11T08:00:39.396Z,101.03
2022-12-11T08:03:05.759Z,92.68
2022-12-11T08:05:32.123Z,87.35
2022-12-11T08:07:58.528Z,98.45
2022-12-11T08:10:25.094Z,97.80
2022-12-11T08:12:51.529Z,82.57
2022-12-11T08:15:18.025Z,84.53
2022-12-11T08:17:44.375Z,79.75
2022-12-11T08:20:10.718Z,96.40
2022-12-11T08:22:37.036Z,83.53
2022-12-11T08:25:03.640Z,89.13
2022-12-11T08:27:29.949Z,85.57
2022-12-11T08:29:56.272Z,87.80
2022-12-11T08:32:22.619Z,89.00
2022-12-11T08:34:51.094Z,94.80
2022-12-11T08:37:17.381Z,84.72
2022-12-11T08:39:43.669Z,76.88
2022-12-11T08:42:10.000Z,78.30
2022-12-11T08:44:36.327Z,79.43
2022-12-11T08:47:02.710Z,88.93
2022-12-11T08:49:34.170Z,77.72
2022-12-11T08:52:01.090Z,77.15
2022-12-11T08:54:27.458Z,77.05
2022-12-11T08:56:57.943Z,73.07
2022-12-11T08:59:25.158Z,77.18
2022-12-11T09:01:52.337Z,77.90
2022-12-11T09:04:18.713Z,71.72
2022-12-11T09:06:45.056Z,66.07
2022-12-11T09:09:11.382Z,73.63
2022-12-11T09:11:37.718Z,68.32
2022-12-11T09:14:07.543Z,70.40
2022-12-11T09:16:35.414Z,72.47
2022-12-11T09:19:01.763Z,74.03
2022-12-11T09:21:29.558Z,73.50
2022-12-11T09:23:58.696Z,82.63
2022-12-11T09:26:26.328Z,70.72
2022-12-11T09:28:53.321Z,71.72
2022-12-11T09:31:22.832Z,66.38
2022-12-11T09:33:50.370Z,71.40
2022-12-11T09:36:16.687Z,69.55
2022-12-11T09:38:43.059Z,68.72
2022-12-11T09:41:32.557Z,69.65
2022-12-11T09:44:05.091Z,74.00
2022-12-11T09:46:34.312Z,68.50
2022-12-11T09:49:03.205Z,65.82
2022-12-11T09:51:51.886Z,72.60
2022-12-11T09:54:18.243Z,69.38
2022-12-11T09:56:56.382Z,75.55
2022-12-11T09:59:31.479Z,68.38
2022-12-11T10:02:13.194Z,79.95
2022-12-11T10:04:58.152Z,68.78
2022-12-11T10:07:59.717Z,67.63
2022-12-11T10:10:51.474Z,70.38
2022-12-11T10:14:01.761Z,73.40
2022-12-11T10:16:45.151Z,75.75
2022-12-11T10:19:18.506Z,83.70
2022-12-11T10:21:46.555Z,72.38
2022-12-11T10:25:10.741Z,74.57
2022-12-11T10:27:40.561Z,71.63
2022-12-11T10:30:12.955Z,76.15
2022-12-11T10:32:50.418Z,72.63
2022-12-11T10:35:38.284Z,68.78
2022-12-11T10:38:14.971Z,76.15
2022-12-11T10:40:45.365Z,81.53
2022-12-11T10:43:12.582Z,80.15
2022-12-11T10:45:39.397Z,71.10
2022-12-11T10:48:14.772Z,89.47
2022-12-11T10:50:44.833Z,81.93
2022-12-11T10:53:21.845Z,101.63
2022-12-11T10:55:49.025Z,75.65
2022-12-11T10:58:19.638Z,81.85
2022-12-11T11:00:46.849Z,78.18
2022-12-11T11:03:23.468Z,89.72
2022-12-11T11:05:50.391Z,73.22
2022-12-11T11:08:21.855Z,66.80
2022-12-11T11:10:55.989Z,66.25
2022-12-11T11:13:25.296Z,75.20
2022-12-11T11:16:13.333Z,84.57
2022-12-11T11:18:41.490Z,69.80
2022-12-11T11:21:16.820Z,62.58
2022-12-11T11:23:46.366Z,72.35
2022-12-11T11:26:17.903Z,66.88
2022-12-11T11:28:54.445Z,62.63
2022-12-11T11:31:30.270Z,54.22
2022-12-11T11:34:07.946Z,61.08
2022-12-11T11:36:36.504Z,69.55
2022-12-11T11:39:17.073Z,69.10
2022-12-11T11:41:55.796Z,73.13
2022-12-11T11:44:31.018Z,66.50
2022-12-11T11:47:22.280Z,61.67
2022-12-11T11:50:08.072Z,69.03
2022-12-11T11:52:41.692Z,67.18
2022-12-11T11:55:18.708Z,66.88
2022-12-11T11:57:58.441Z,67.53
2022-12-11T12:00:31.869Z,63.28
2022-12-11T12:03:08.594Z,65.65
2022-12-11T12:06:04.048Z,66.68
2022-12-11T12:08:48.741Z,63.33
2022-12-11T12:11:40.457Z,64.63
2022-12-11T12:17:25.161Z,60.03
2022-12-11T12:20:01.898Z,55.75
2022-12-11T12:22:43.650Z,58.40
2022-12-11T12:25:36.551Z,52.45
2022-12-11T12:28:15.713Z,53.45
2022-12-11T12:30:50.974Z,52.10
2022-12-11T12:33:36.776Z,54.90
2022-12-11T12:36:16.730Z,51.70
2022-12-11T12:38:57.820Z,55.00
2022-12-11T12:41:48.638Z,49.50
2022-12-11T12:44:18.103Z,46.90
2022-12-11T12:46:53.724Z,48.55
2022-12-11T12:49:25.458Z,48.30
2022-12-11T12:51:52.686Z,48.53
2022-12-11T12:54:21.481Z,55.42
2022-12-11T12:56:48.968Z,49.30
2022-12-11T12:59:26.510Z,50.50
2022-12-11T13:01:58.835Z,48.42
2022-12-11T13:04:55.841Z,50.05
2022-12-11T13:07:26.912Z,51.78
2022-12-11T13:09:58.209Z,47.97
2022-12-11T13:12:33.702Z,47.88
2022-12-11T13:15:00.753Z,46.63
2022-12-11T13:17:37.471Z,43.17
2022-12-11T13:20:13.673Z,54.78
2022-12-11T13:23:05.607Z,51.70
2022-12-11T13:25:44.846Z,50.47
2022-12-11T13:28:48.233Z,53.13
2022-12-11T13:31:14.603Z,43.95
2022-12-11T13:33:49.802Z,44.67
2022-12-11T13:36:37.055Z,44.85
2022-12-11T13:39:16.787Z,44.83
2022-12-11T13:41:47.090Z,40.47
2022-12-11T13:44:23.942Z,39.13
2022-12-11T13:46:52.822Z,44.08
2022-12-11T13:49:33.221Z,39.92
2022-12-11T13:52:00.699Z,44.67
2022-12-11T13:54:29.041Z,41.53
2022-12-11T13:57:14.918Z,31.60
2022-12-11T13:59:43.638Z,36.10
2022-12-11T14:02:19.025Z,30.02
2022-12-11T14:04:47.510Z,33.63
2022-12-11T14:07:22.299Z,31.25
2022-12-11T14:12:21.495Z,35.47
2022-12-11T14:14:55.635Z,36.47
2022-12-11T14:17:27.729Z,51.42
2022-12-11T14:19:56.812Z,58.85
2022-12-11T14:22:26.978Z,52.25
2022-12-11T14:24:58.535Z,56.35
2022-12-11T14:27:26.241Z,69.18
2022-12-11T14:29:53.348Z,58.90
2022-12-11T14:32:34.914Z,59.63
2022-12-11T14:35:05.796Z,66.50
2022-12-11T14:37:34.379Z,68.38
2022-12-11T14:40:09.146Z,72.68
2022-12-11T14:45:09.383Z,67.60
2022-12-11T14:47:42.841Z,60.60
2022-12-11T14:50:35.388Z,61.05
2022-12-11T14:53:13.226Z,59.25
2022-12-11T14:55:40.574Z,57.25
2022-12-11T14:58:14.302Z,53.92
2022-12-11T15:00:40.727Z,59.10
2022-12-11T15:03:22.110Z,65.82
2022-12-11T15:05:56.549Z,62.08
2022-12-11T15:08:32.423Z,67.68
2022-12-11T15:11:07.636Z,59.17
2022-12-11T15:13:37.096Z,69.68
2022-12-11T15:16:06.702Z,61.67
2022-12-11T15:18:36.166Z,60.45
2022-12-11T15:21:04.923Z,59.38
2022-12-11T15:23:31.309Z,67.80
2022-12-11T15:26:02.236Z,56.25
2022-12-11T15:28:34.355Z,60.78
2022-12-11T15:31:04.672Z,60.47
2022-12-11T15:33:34.612Z,53.30
2022-12-11T15:36:05.457Z,62.00
2022-12-11T15:38:37.432Z,55.35
2022-12-11T15:41:04.115Z,52.55
2022-12-11T15:43:34.423Z,52.88
2022-12-11T15:46:02.089Z,56.13
2022-12-11T15:48:28.532Z,55.38
2022-12-11T15:50:54.881Z,58.58
2022-12-11T15:53:21.221Z,55.25
2022-12-11T15:55:47.776Z,52.08
2022-12-11T15:58:18.337Z,57.92
2022-12-11T16:00:44.786Z,55.30
2022-12-11T16:03:15.856Z,59.38
2022-12-11T16:05:42.380Z,57.72
2022-12-11T16:08:13.182Z,56.72
2022-12-11T16:10:39.525Z,57.20
2022-12-11T16:13:05.834Z,65.93
2022-12-11T16:15:32.247Z,55.28
2022-12-11T16:18:00.881Z,57.38
2022-12-11T16:20:27.258Z,59.67
2022-12-11T16:22:53.621Z,57.13
2022-12-11T16:25:19.971Z,57.40
2022-12-11T16:27:46.349Z,56.60
2022-12-11T16:30:13.505Z,59.42
2022-12-11T16:32:39.867Z,61.15
2022-12-11T16:35:06.532Z,59.05
2022-12-11T16:37:32.877Z,67.70
2022-12-11T16:39:59.207Z,61.08
2022-12-11T16:42:25.528Z,58.33
2022-12-11T16:44:51.832Z,58.60
2022-12-11T16:47:18.174Z,59.80
2022-12-11T16:49:44.453Z,60.88
2022-12-11T16:52:10.795Z,57.15
2022-12-11T16:54:37.357Z,61.25
2022-12-11T16:57:03.775Z,61.72
2022-12-11T16:59:36.566Z,61.63
2022-12-11T17:02:03.642Z,64.28
2022-12-11T17:04:29.997Z,83.75
2022-12-11T17:06:56.297Z,96.30
2022-12-11T17:09:22.642Z,105.13
2022-12-11T17:11:49.354Z,93.00
2022-12-11T17:14:15.666Z,88.00
2022-12-11T17:16:41.989Z,89.18
2022-12-11T17:19:08.607Z,78.60
2022-12-11T17:21:34.905Z,73.82
2022-12-11T17:24:01.229Z,72.18
2022-12-11T17:26:27.830Z,66.20
2022-12-11T17:28:55.925Z,72.22
2022-12-11T17:31:22.316Z,74.25
2022-12-11T17:33:48.801Z,90.35
2022-12-11T17:36:17.911Z,88.60
2022-12-11T17:38:44.812Z,81.65
2022-12-11T17:41:18.524Z,75.50
2022-12-11T17:43:47.329Z,73.70
2022-12-11T17:46:14.237Z,65.07
2022-12-11T17:48:40.782Z,66.20
2022-12-11T17:51:08.857Z,62.60
2022-12-11T17:53:35.568Z,67.18
2022-12-11T17:56:04.339Z,76.03
2022-12-11T17:58:30.886Z,64.60
2022-12-11T18:00:58.363Z,66.80
2022-12-11T18:03:27.839Z,65.82
2022-12-11T18:05:56.140Z,67.72
2022-12-11T18:08:25.584Z,58.08
2022-12-11T18:10:53.094Z,67.05
2022-12-11T18:13:20.214Z,53.97
2022-12-11T18:15:46.575Z,58.03
2022-12-11T18:18:12.993Z,62.03
2022-12-11T18:20:39.402Z,64.60
2022-12-11T18:23:06.069Z,59.15
2022-12-11T18:25:32.441Z,105.40
2022-12-11T18:27:58.915Z,53.75
2022-12-11T18:30:25.717Z,63.28
2022-12-11T18:32:52.352Z,69.40
2022-12-11T18:35:18.762Z,67.07
2022-12-11T18:37:45.094Z,73.00
2022-12-11T18:40:11.842Z,77.93
2022-12-11T18:42:38.487Z,74.03
2022-12-11T18:45:05.737Z,74.97
2022-12-11T18:47:32.252Z,78.43
2022-12-11T18:50:03.928Z,77.55
2022-12-11T18:52:33.990Z,76.30
2022-12-11T18:55:00.387Z,75.07
2022-12-11T18:57:26.713Z,76.10
2022-12-11T18:59:53.544Z,75.53
2022-12-11T19:02:20.917Z,74.28
2022-12-11T19:04:47.344Z,71.28
2022-12-11T19:07:13.746Z,71.03
2022-12-11T19:09:44.835Z,68.95
2022-12-11T19:12:14.067Z,66.13
2022-12-11T19:14:40.380Z,66.07
2022-12-11T19:17:06.805Z,64.20
2022-12-11T19:19:33.159Z,63.92
2022-12-11T19:21:59.497Z,63.55
2022-12-11T19:24:25.824Z,65.35
2022-12-11T19:26:52.524Z,71.28
2022-12-11T19:29:21.960Z,66.85
2022-12-11T19:31:48.368Z,63.53
2022-12-11T19:34:15.554Z,64.10
2022-12-11T19:36:41.868Z,57.92
2022-12-11T19:39:12.763Z,69.28
2022-12-11T19:41:40.070Z,66.65
2022-12-11T19:44:06.633Z,68.28
2022-12-11T19:46:33.272Z,68.30
2022-12-11T19:49:00.098Z,67.68
2022-12-11T19:51:32.329Z,68.35
2022-12-11T19:53:59.280Z,73.32
2022-12-11T19:56:26.128Z,75.13
2022-12-11T19:58:52.473Z,79.57
2022-12-11T20:01:28.201Z,82.80
2022-12-11T20:03:57.191Z,77.65
2022-12-11T20:06:24.072Z,76.78
2022-12-11T20:08:50.573Z,81.35
2022-12-11T20:11:18.951Z,77.60
2022-12-11T20:13:48.390Z,70.45
2022-12-11T20:16:16.765Z,71.65
2022-12-11T20:18:43.244Z,69.70
2022-12-11T20:21:12.908Z,75.35
2022-12-11T20:23:39.284Z,77.70
2022-12-11T20:26:07.863Z,74.78
2022-12-11T20:28:34.317Z,68.10
2022-12-11T20:31:09.161Z,67.63
2022-12-11T20:33:35.792Z,70.32
2022-12-11T20:36:06.826Z,70.35
2022-12-11T20:38:34.636Z,67.72
2022-12-11T20:41:01.091Z,73.53
2022-12-11T20:43:27.435Z,70.65
2022-12-11T20:45:53.854Z,70.70
2022-12-11T20:48:20.227Z,68.60
2022-12-11T20:50:46.616Z,67.00
2022-12-11T20:53:13.011Z,73.47
2022-12-11T20:55:40.721Z,71.45
2022-12-11T20:58:07.556Z,68.05
2022-12-11T21:00:36.999Z,67.60
2022-12-11T21:03:04.180Z,69.47
2022-12-11T21:05:31.556Z,73.47
2022-12-11T21:07:57.935Z,71.20
2022-12-11T21:10:24.306Z,72.78
2022-12-11T21:12:50.674Z,72.70
2022-12-11T21:15:17.037Z,70.43
2022-12-11T21:17:43.404Z,72.60
2022-12-11T21:20:10.202Z,71.70
2022-12-11T21:22:36.522Z,73.82
2022-12-11T21:25:03.291Z,73.80
2022-12-11T21:27:29.630Z,81.45
2022-12-11T21:29:56.008Z,74.50
2022-12-11T21:32:22.518Z,76.68
2022-12-11T21:34:50.549Z,78.80
2022-12-11T21:37:17.359Z,99.43
2022-12-11T21:39:43.699Z,102.57
2022-12-11T21:42:10.046Z,88.88
2022-12-11T21:47:25.735Z,81.47
2022-12-11T21:49:52.093Z,82.57
2022-12-11T21:52:18.416Z,83.88
2022-12-11T21:54:44.794Z,80.57
2022-12-11T21:57:11.225Z,84.47
2022-12-11T21:59:37.572Z,91.75
2022-12-11T22:02:04.020Z,84.45
2022-12-11T22:04:30.412Z,96.68
2022-12-11T22:06:56.786Z,95.00
2022-12-11T22:09:23.253Z,94.30
2022-12-11T22:11:53.694Z,96.57
2022-12-11T22:14:22.937Z,91.95
2022-12-11T22:16:49.467Z,89.07
2022-12-11T22:19:15.881Z,89.53
2022-12-11T22:21:42.401Z,90.82
2022-12-11T22:24:08.810Z,86.82
2022-12-11T22:26:35.153Z,84.28
2022-12-11T22:29:01.453Z,88.00
2022-12-11T22:31:27.857Z,81.60
2022-12-11T22:33:54.927Z,92.38
2022-12-11T22:36:23.464Z,91.53
2022-12-11T22:38:49.780Z,87.38
2022-12-11T22:41:22.969Z,83.22
2022-12-11T22:43:50.271Z,80.47
2022-12-11T22:46:18.600Z,83.53
2022-12-11T22:48:44.909Z,77.95
2022-12-11T22:51:11.615Z,81.18
2022-12-11T22:53:38.019Z,76.55
2022-12-11T22:56:09.292Z,83.00
2022-12-11T22:58:35.788Z,112.90
2022-12-11T23:01:03.307Z,133.00
2022-12-11T23:03:29.772Z,114.07
2022-12-11T23:05:56.823Z,114.60
2022-12-11T23:08:25.239Z,96.85
2022-12-11T23:10:52.207Z,111.03
2022-12-11T23:13:18.528Z,114.75
2022-12-11T23:15:44.826Z,90.63
2022-12-11T23:18:11.150Z,98.60
2022-12-11T23:20:37.490Z,102.68
2022-12-11T23:23:03.827Z,94.65
2022-12-11T23:25:30.154Z,91.72
2022-12-11T23:27:56.456Z,95.70
2022-12-11T23:30:22.873Z,101.07
2022-12-11T23:32:49.240Z,97.30
2022-12-11T23:35:15.673Z,95.00
2022-12-11T23:37:42.108Z,94.43
2022-12-11T23:40:09.383Z,102.35
2022-12-11T23:42:35.779Z,91.43
2022-12-11T23:45:02.121Z,94.63
2022-12-11T23:47:28.464Z,97.32
2022-12-11T23:49:54.802Z,85.45
2022-12-11T23:52:21.135Z,90.35
2022-12-11T23:54:47.456Z,87.72
2022-12-11T23:57:13.903Z,89.57
2022-12-11T23:59:40.233Z,99.13
